Time;durP1;ratioP1;P1;durP2;ratioP2;P2;SDS_P1;SDS_P2;PMS_P1;PMS_P2;Temp;Humidity;BMP_temperature;BMP_pressure;BME280_temperature;BME280_humidity;BME280_pressure;Samples;Min_cycle;Max_cycle;Signal;HPM_P1;HPM_P2
2022/09/20 00:01:27;;;;;;;1999.90;999.90;;;12.60;99.90;;;;;;4992066;28;20015;-78
2022/09/20 00:03:55;;;;;;;1999.90;999.90;;;12.60;99.90;;;;;;4992562;28;20053;-73
2022/09/20 00:06:24;;;;;;;1999.90;999.90;;;12.50;99.90;;;;;;4991200;28;20050;-79
2022/09/20 00:08:50;;;;;;;1999.90;999.90;;;12.60;99.90;;;;;;4990714;28;20019;-73
2022/09/20 00:11:19;;;;;;;1999.90;999.90;;;12.50;99.90;;;;;;4992115;28;20034;-73
2022/09/20 00:13:47;;;;;;;1999.90;999.90;;;12.50;99.90;;;;;;4992296;28;20129;-78
2022/09/20 00:16:27;;;;;;;1999.90;999.90;;;12.50;99.90;;;;;;4991556;28;20030;-78
2022/09/20 00:18:55;;;;;;;1999.90;999.90;;;12.50;99.90;;;;;;4991840;28;20456;-78
2022/09/20 00:21:26;;;;;;;1999.90;999.90;;;12.50;99.90;;;;;;4992205;28;20022;-74
2022/09/20 00:23:52;;;;;;;1999.90;999.90;;;12.50;99.90;;;;;;4983450;28;20566;-73
2022/09/20 00:26:18;;;;;;;1999.90;999.90;;;12.50;99.90;;;;;;4971258;28;20081;-79
2022/09/20 00:28:45;;;;;;;1999.90;999.90;;;12.50;99.90;;;;;;4972497;28;20430;-73
2022/09/20 00:31:12;;;;;;;1999.90;999.90;;;12.50;99.90;;;;;;4971316;28;20121;-73
2022/09/20 00:36:22;;;;;;;1999.90;999.90;;;12.50;99.90;;;;;;4972474;28;20476;-73
2022/09/20 00:38:48;;;;;;;1999.90;999.90;;;12.40;99.90;;;;;;4979756;28;20097;-73
2022/09/20 00:41:14;;;;;;;1999.90;999.90;;;12.40;99.90;;;;;;4995037;28;20101;-73
2022/09/20 00:43:45;;;;;;;1999.90;999.90;;;12.40;99.90;;;;;;4995632;28;20023;-73
2022/09/20 00:46:41;;;;;;;1999.90;999.90;;;12.40;99.90;;;;;;4995436;28;20065;-73
2022/09/20 00:49:06;;;;;;;1999.90;999.90;;;12.40;99.90;;;;;;4993984;28;20387;-73
2022/09/20 00:51:35;;;;;;;1999.90;999.90;;;12.30;99.90;;;;;;4995348;28;20113;-78
2022/09/20 00:54:04;;;;;;;1999.90;999.90;;;12.30;99.90;;;;;;4994101;28;20057;-78
2022/09/20 00:56:33;;;;;;;1999.90;999.90;;;12.30;99.90;;;;;;4995130;28;20030;-78
2022/09/20 00:59:33;;;;;;;1999.90;999.90;;;12.30;99.90;;;;;;4993671;28;20113;-78
2022/09/20 01:02:22;;;;;;;1999.90;999.90;;;12.20;99.90;;;;;;4994337;28;20030;-73
2022/09/20 01:04:48;;;;;;;1999.90;999.90;;;12.20;99.90;;;;;;4993492;28;20426;-73
2022/09/20 01:07:17;;;;;;;1999.90;999.90;;;12.30;99.90;;;;;;4994211;28;20034;-73
2022/09/20 01:09:42;;;;;;;1999.90;999.90;;;12.20;99.90;;;;;;4994972;28;20026;-78
2022/09/20 01:12:16;;;;;;;1999.90;999.90;;;12.20;99.90;;;;;;4993433;28;20038;-78
2022/09/20 01:14:44;;;;;;;1999.90;999.90;;;12.20;99.90;;;;;;4994797;28;20057;-73
2022/09/20 01:17:11;;;;;;;1999.90;999.90;;;12.10;99.90;;;;;;4993405;28;20518;-73
2022/09/20 01:19:37;;;;;;;1999.90;999.90;;;12.10;99.90;;;;;;4994508;28;20018;-78
2022/09/20 01:22:09;;;;;;;1999.90;999.90;;;12.00;99.90;;;;;;4994839;28;20026;-73
2022/09/20 01:24:46;;;;;;;1999.90;999.90;;;12.00;99.90;;;;;;4980000;28;20509;-78
2022/09/20 01:27:30;;;;;;;1999.90;999.90;;;12.00;99.90;;;;;;4975199;28;20406;-73
2022/09/20 01:30:02;;;;;;;1999.90;999.90;;;11.90;99.90;;;;;;4974793;28;20030;-73
2022/09/20 01:32:50;;;;;;;1999.90;999.90;;;11.90;99.90;;;;;;4974924;28;20458;-78
2022/09/20 01:35:18;;;;;;;1999.90;999.90;;;11.90;99.90;;;;;;4974986;28;20050;-78
2022/09/20 01:38:03;;;;;;;1999.90;999.90;;;11.90;99.90;;;;;;4974717;28;20026;-78
2022/09/20 01:41:13;;;;;;;1999.90;999.90;;;11.80;99.90;;;;;;4975049;28;20482;-74
2022/09/20 01:44:14;;;;;;;1999.90;999.90;;;11.80;99.90;;;;;;4973926;28;20041;-78
2022/09/20 01:46:42;;;;;;;1999.90;999.90;;;11.80;99.90;;;;;;4966360;28;20105;-74
2022/09/20 01:49:22;;;;;;;1999.90;999.90;;;11.70;99.90;;;;;;4974602;28;20023;-78
2022/09/20 01:52:19;;;;;;;1999.90;999.90;;;11.70;99.90;;;;;;4974870;28;20031;-78
2022/09/20 01:54:56;;;;;;;1999.90;999.90;;;11.70;99.90;;;;;;4974626;28;20490;-73
2022/09/20 01:57:49;;;;;;;1999.90;999.90;;;11.70;99.90;;;;;;4974723;28;20402;-73
2022/09/20 02:00:22;;;;;;;1999.90;999.90;;;11.60;99.90;;;;;;4974460;28;20110;-78
2022/09/20 02:03:12;;;;;;;1999.90;999.90;;;11.60;99.90;;;;;;4974213;28;20033;-73
2022/09/20 02:05:55;;;;;;;1999.90;999.90;;;11.60;99.90;;;;;;4973736;28;20054;-73
2022/09/20 02:08:33;;;;;;;1999.90;999.90;;;11.60;99.90;;;;;;4973608;28;20046;-73
2022/09/20 02:11:11;;;;;;;1999.90;999.90;;;11.60;99.90;;;;;;4974344;28;20082;-78
2022/09/20 02:13:39;;;;;;;1999.90;999.90;;;11.60;99.90;;;;;;4974190;28;20057;-78
2022/09/20 02:16:39;;;;;;;1999.90;999.90;;;11.60;99.90;;;;;;4977719;28;20057;-73
2022/09/20 02:19:20;;;;;;;1999.90;999.90;;;11.60;99.90;;;;;;4991905;28;20490;-73
2022/09/20 02:22:28;;;;;;;1999.90;999.90;;;11.50;99.90;;;;;;4992132;28;20030;-73
2022/09/20 02:25:21;;;;;;;1999.90;999.90;;;11.50;99.90;;;;;;4978194;28;20081;-79
2022/09/20 02:27:55;;;;;;;1999.90;999.90;;;11.50;99.90;;;;;;4974166;28;20078;-78
2022/09/20 02:30:36;;;;;;;1999.90;999.90;;;11.40;99.90;;;;;;4973937;28;20035;-78
2022/09/20 02:33:16;;;;;;;1999.90;999.90;;;11.40;99.90;;;;;;4972240;28;20086;-73
2022/09/20 02:36:10;;;;;;;1999.90;999.90;;;11.40;99.90;;;;;;4974028;28;20034;-78
2022/09/20 02:39:10;;;;;;;1999.90;999.90;;;11.30;99.90;;;;;;4977893;28;20098;-78
2022/09/20 02:41:57;;;;;;;1999.90;999.90;;;11.30;99.90;;;;;;4993510;28;20089;-78
2022/09/20 02:44:37;;;;;;;1999.90;999.90;;;11.30;99.90;;;;;;4993093;28;20022;-72
2022/09/20 02:47:35;;;;;;;1999.90;999.90;;;11.20;99.90;;;;;;4991467;28;20031;-73
2022/09/20 02:50:10;;;;;;;1999.90;999.90;;;11.20;99.90;;;;;;4992569;28;20038;-73
2022/09/20 02:53:07;;;;;;;1999.90;999.90;;;11.20;99.90;;;;;;4992890;28;20065;-73
2022/09/20 02:55:42;;;;;;;1999.90;999.90;;;11.10;99.90;;;;;;4992102;28;20084;-78
2022/09/20 02:58:32;;;;;;;1999.90;999.90;;;11.10;99.90;;;;;;4993059;28;20038;-73
2022/09/20 03:01:23;;;;;;;1999.90;999.90;;;11.10;99.90;;;;;;4988283;28;20023;-73
2022/09/20 03:03:57;;;;;;;1999.90;999.90;;;11.00;99.90;;;;;;4973683;28;20035;-73
2022/09/20 03:06:38;;;;;;;1999.90;999.90;;;11.00;99.90;;;;;;4973119;28;20066;-73
2022/09/20 03:09:33;;;;;;;1999.90;999.90;;;11.00;99.90;;;;;;4972548;28;20035;-79
2022/09/20 03:12:34;;;;;;;1999.90;999.90;;;11.00;99.90;;;;;;4973241;28;20051;-73
2022/09/20 03:15:08;;;;;;;1999.90;999.90;;;11.00;99.90;;;;;;4973256;28;20030;-73
2022/09/20 03:17:42;;;;;;;1999.90;999.90;;;11.00;99.90;;;;;;4988414;28;20117;-78
2022/09/20 03:20:23;;;;;;;1999.90;999.90;;;10.90;99.90;;;;;;4992224;28;20098;-73
2022/09/20 03:23:14;;;;;;;1999.90;999.90;;;10.90;99.90;;;;;;4990999;28;20022;-73
2022/09/20 03:26:06;;;;;;;1999.90;999.90;;;10.80;99.90;;;;;;4992782;28;20425;-73
2022/09/20 03:28:54;;;;;;;1999.90;999.90;;;10.80;99.90;;;;;;4992412;28;20033;-73
2022/09/20 03:31:49;;;;;;;1999.90;999.90;;;10.80;99.90;;;;;;4992554;28;20042;-73
2022/09/20 03:34:44;;;;;;;1999.90;999.90;;;10.80;99.90;;;;;;4992370;28;20029;-73
2022/09/20 03:37:15;;;;;;;1999.90;999.90;;;10.70;99.90;;;;;;4999588;28;20042;-73
2022/09/20 03:40:02;;;;;;;1999.90;999.90;;;10.70;99.90;;;;;;4979017;28;20469;-73
2022/09/20 03:42:29;;;;;;;1999.90;999.90;;;10.70;99.90;;;;;;4971658;28;20030;-78
2022/09/20 03:45:14;;;;;;;1999.90;999.90;;;10.60;99.90;;;;;;4973009;28;20023;-78
2022/09/20 03:48:22;;;;;;;1999.90;999.90;;;10.60;99.90;;;;;;4972944;28;20393;-78
2022/09/20 03:51:11;;;;;;;1999.90;999.90;;;10.60;99.90;;;;;;4971591;28;20451;-73
2022/09/20 03:53:58;;;;;;;1999.90;999.90;;;10.60;99.90;;;;;;4971766;28;20398;-73
2022/09/20 03:56:45;;;;;;;1999.90;999.90;;;10.60;99.90;;;;;;4972765;28;20023;-78
2022/09/20 03:59:53;;;;;;;1999.90;999.90;;;10.60;99.90;;;;;;4972575;28;20109;-78
2022/09/20 04:02:57;;;;;;;1999.90;999.90;;;10.50;99.90;;;;;;4972102;28;20023;-73
2022/09/20 04:05:40;;;;;;;1999.90;999.90;;;10.50;99.90;;;;;;4972822;28;20578;-73
2022/09/20 04:08:32;;;;;;;1999.90;999.90;;;10.40;99.90;;;;;;4971543;28;20065;-78
2022/09/20 04:11:35;;;;;;;1999.90;999.90;;;10.50;99.90;;;;;;4972377;28;20070;-73
2022/09/20 04:14:17;;;;;;;1999.90;999.90;;;10.50;99.90;;;;;;4974359;28;20222;-72
2022/09/20 04:16:59;;;;;;;1999.90;999.90;;;10.50;99.90;;;;;;4984896;28;20038;-73
2022/09/20 04:19:25;;;;;;;1999.90;999.90;;;10.50;99.90;;;;;;4995351;28;20080;-73
2022/09/20 04:22:00;;;;;;;1999.90;999.90;;;10.50;99.90;;;;;;4995988;28;20046;-73
2022/09/20 04:24:29;;;;;;;1999.90;999.90;;;10.50;99.90;;;;;;4994164;28;20030;-78
2022/09/20 04:27:19;;;;;;;1999.90;999.90;;;10.50;99.90;;;;;;4995680;28;20417;-73
2022/09/20 04:30:05;;;;;;;1999.90;999.90;;;10.50;99.90;;;;;;4995755;28;20069;-78
2022/09/20 04:32:41;;;;;;;1999.90;999.90;;;10.40;99.90;;;;;;4995232;28;20040;-78
2022/09/20 04:38:15;;;;;;;1999.90;999.90;;;10.40;99.90;;;;;;4995373;28;20042;-78
2022/09/20 04:41:13;;;;;;;1999.90;999.90;;;10.40;99.90;;;;;;4994346;28;20421;-78
2022/09/20 04:44:13;;;;;;;1999.90;999.90;;;10.30;99.90;;;;;;4995266;28;20025;-73
2022/09/20 04:46:59;;;;;;;1999.90;999.90;;;10.30;99.90;;;;;;4994408;28;20026;-78
2022/09/20 04:49:32;;;;;;;1999.90;999.90;;;10.30;99.90;;;;;;4995307;28;20056;-79
2022/09/20 04:52:12;;;;;;;1999.90;999.90;;;10.30;99.90;;;;;;4995544;28;20508;-73
2022/09/20 04:55:07;;;;;;;1999.90;999.90;;;10.30;99.90;;;;;;4988571;28;20033;-78
2022/09/20 04:57:38;;;;;;;1999.90;999.90;;;10.20;99.90;;;;;;4975702;28;20505;-73
2022/09/20 05:00:13;;;;;;;1999.90;999.90;;;10.20;99.90;;;;;;4974918;28;20561;-73
2022/09/20 05:03:16;;;;;;;1999.90;999.90;;;10.10;99.90;;;;;;4974693;28;20023;-78
2022/09/20 05:06:04;;;;;;;1999.90;999.90;;;10.10;99.90;;;;;;4975452;28;20062;-73
2022/09/20 05:09:12;;;;;;;1999.90;999.90;;;10.10;99.90;;;;;;4975305;28;20110;-73
2022/09/20 05:11:46;;;;;;;1999.90;999.90;;;10.00;99.90;;;;;;4973351;28;20027;-78
2022/09/20 05:14:23;;;;;;;1999.90;999.90;;;10.00;99.90;;;;;;4975379;28;20027;-73
2022/09/20 05:17:01;;;;;;;1999.90;999.90;;;10.00;99.90;;;;;;4985377;28;20069;-73
2022/09/20 05:19:54;;;;;;;1999.90;999.90;;;9.90;99.90;;;;;;4981454;28;20108;-75
2022/09/20 05:22:47;;;;;;;1999.90;999.90;;;9.90;99.90;;;;;;4972488;28;20126;-73
2022/09/20 05:25:18;;;;;;;1999.90;999.90;;;9.80;99.90;;;;;;4974423;28;20269;-73
2022/09/20 05:28:12;;;;;;;1999.90;999.90;;;9.80;99.90;;;;;;4975152;28;20259;-78
2022/09/20 05:31:18;;;;;;;1999.90;999.90;;;9.80;99.90;;;;;;4980711;28;20057;-73
2022/09/20 05:34:10;;;;;;;1999.90;999.90;;;9.70;99.90;;;;;;4974203;28;20034;-73
2022/09/20 05:36:47;;;;;;;1999.90;999.90;;;9.70;99.90;;;;;;4985988;28;20501;-73
2022/09/20 05:39:34;;;;;;;1999.90;999.90;;;9.70;99.90;;;;;;4984289;28;20137;-78
2022/09/20 05:42:08;;;;;;;1999.90;999.90;;;9.70;99.90;;;;;;4984050;28;20026;-78
2022/09/20 05:44:55;;;;;;;1999.90;999.90;;;9.70;99.90;;;;;;4993890;28;20030;-76
2022/09/20 05:47:33;;;;;;;1999.90;999.90;;;9.70;99.90;;;;;;4993449;28;20049;-72
2022/09/20 05:50:33;;;;;;;1999.90;999.90;;;9.70;99.90;;;;;;4993523;28;20117;-73
2022/09/20 05:53:28;;;;;;;1999.90;999.90;;;9.70;99.90;;;;;;4974842;28;20058;-75
2022/09/20 05:55:59;;;;;;;1999.90;999.90;;;9.70;99.90;;;;;;4997224;28;20505;-72
2022/09/20 05:58:34;;;;;;;1999.90;999.90;;;9.80;99.90;;;;;;4992211;28;20084;-76
2022/09/20 06:01:14;;;;;;;1999.90;999.90;;;9.80;99.90;;;;;;4987777;28;20049;-72
2022/09/20 06:04:07;;;;;;;1999.90;999.90;;;9.80;99.90;;;;;;4978694;28;20117;-75
2022/09/20 06:07:00;;;;;;;1999.90;999.90;;;9.80;99.90;;;;;;4989309;28;20093;-75
2022/09/20 06:09:38;;;;;;;;;;;9.90;99.90;;;;;;4974533;28;20035;-75
2022/09/20 06:13:07;;;;;;;1999.90;999.90;;;9.90;99.90;;;;;;4973050;28;19910;-75
2022/09/20 06:16:03;;;;;;;1999.90;999.90;;;9.90;99.90;;;;;;4977985;28;20128;-73
2022/09/20 06:19:01;;;;;;;1999.90;999.90;;;9.90;99.90;;;;;;4999174;28;20068;-75
2022/09/20 06:21:45;;;;;;;1999.90;999.90;;;9.90;99.90;;;;;;4983399;28;20157;-72
2022/09/20 06:24:35;;;;;;;1999.90;999.90;;;9.90;99.90;;;;;;5009818;28;20034;-72
2022/09/20 06:27:07;;;;;;;1999.90;999.90;;;9.90;99.90;;;;;;5008550;28;20037;-72
2022/09/20 06:29:37;;;;;;;1999.90;999.90;;;10.00;99.90;;;;;;4987914;28;20052;-72
2022/09/20 06:32:03;;;;;;;1999.90;999.90;;;10.10;99.90;;;;;;5007979;28;20018;-75
2022/09/20 06:34:29;;;;;;;1999.90;999.90;;;10.10;99.90;;;;;;5010031;28;20034;-75
2022/09/20 06:42:46;;;;;;;1999.90;999.90;;;10.40;99.90;;;;;;4989858;28;20081;-72
2022/09/20 06:45:12;;;;;;;1999.90;999.90;;;10.50;99.90;;;;;;4998800;28;20050;-72
2022/09/20 06:47:38;;;;;;;1999.90;999.90;;;10.50;99.90;;;;;;4991001;28;20026;-76
2022/09/20 06:50:05;;;;;;;1999.90;999.90;;;10.70;99.90;;;;;;4990868;28;20481;-72
2022/09/20 06:52:30;;;;;;;1999.90;999.90;;;10.70;99.90;;;;;;4991695;28;20042;-72
2022/09/20 06:54:56;;;;;;;1999.90;999.90;;;10.80;99.90;;;;;;4990065;28;20042;-72
2022/09/20 06:57:30;;;;;;;1999.90;999.90;;;10.80;99.90;;;;;;4982643;28;20023;-75
2022/09/20 06:59:56;;;;;;;1999.90;999.90;;;10.90;99.90;;;;;;4980675;28;20030;-75
2022/09/20 07:02:22;;;;;;;1999.90;999.90;;;11.00;99.90;;;;;;4989472;28;20033;-73
2022/09/20 07:04:47;;;;;;;1999.90;999.90;;;11.10;99.90;;;;;;4986894;28;20129;-73
2022/09/20 07:07:17;;;;;;;1999.90;999.90;;;11.20;99.90;;;;;;4991048;28;20050;-73
2022/09/20 07:09:43;;;;;;;1999.90;999.90;;;11.30;99.90;;;;;;4977317;28;20113;-74
2022/09/20 07:12:11;;;;;;;1999.90;999.90;;;11.30;99.90;;;;;;4990278;28;20126;-76
2022/09/20 07:14:37;;;;;;;1999.90;999.90;;;11.40;99.90;;;;;;4987770;28;20137;-74
2022/09/20 07:17:03;;;;;;;1999.90;999.90;;;11.50;99.90;;;;;;4987176;28;20030;-76
2022/09/20 07:19:29;;;;;;;1999.90;999.90;;;11.60;99.90;;;;;;4987426;28;20136;-74
2022/09/20 07:21:54;;;;;;;1999.90;999.90;;;11.70;99.90;;;;;;4990875;28;20026;-73
2022/09/20 07:24:20;;;;;;;1999.90;999.90;;;11.70;99.90;;;;;;4990151;28;20109;-75
2022/09/20 07:26:58;;;;;;;1999.90;999.90;;;11.80;99.90;;;;;;4989346;28;20026;-72
2022/09/20 07:29:24;;;;;;;1999.90;999.90;;;12.50;99.90;;;;;;4989659;28;20057;-73
2022/09/20 07:31:50;;;;;;;1999.90;999.90;;;14.10;99.90;;;;;;4987970;28;20053;-72
2022/09/20 07:34:19;;;;;;;1999.90;999.90;;;13.50;99.90;;;;;;4989797;28;20089;-73
2022/09/20 07:36:45;;;;;;;1999.90;999.90;;;13.10;99.90;;;;;;4986025;28;20041;-79
2022/09/20 07:39:11;;;;;;;1999.90;999.90;;;12.80;99.90;;;;;;4987060;28;20121;-78
2022/09/20 07:41:36;;;;;;;1999.90;999.90;;;12.80;99.90;;;;;;4989847;28;20459;-78
2022/09/20 07:44:20;;;;;;;1999.90;999.90;;;12.90;99.90;;;;;;4990426;28;20553;-73
2022/09/20 07:46:54;;;;;;;1999.90;999.90;;;13.00;99.90;;;;;;4986847;28;20015;-74
2022/09/20 07:49:20;;;;;;;1999.90;999.90;;;13.30;99.90;;;;;;4994512;28;20030;-76
2022/09/20 07:51:47;;;;;;;1999.90;999.90;;;13.70;99.90;;;;;;4993238;28;20027;-74
2022/09/20 07:54:12;;;;;;;1999.90;999.90;;;15.00;99.90;;;;;;4994753;28;20033;-73
2022/09/20 07:56:38;;;;;;;1999.90;999.90;;;18.00;97.90;;;;;;4992212;28;20045;-74
2022/09/20 07:59:04;;;;;;;1999.90;999.90;;;19.80;94.70;;;;;;4992173;28;20101;-75
2022/09/20 08:01:30;;;;;;;1999.90;999.90;;;21.20;92.90;;;;;;4992688;28;20516;-73
2022/09/20 08:03:56;;;;;;;1999.90;999.90;;;22.20;91.10;;;;;;4985320;28;20117;-77
2022/09/20 08:06:22;;;;;;;1999.90;999.90;;;22.50;90.20;;;;;;4993360;28;20050;-73
2022/09/20 08:08:48;;;;;;;1999.90;999.90;;;22.90;89.50;;;;;;4991276;28;20035;-76
2022/09/20 08:11:16;;;;;;;1999.90;999.90;;;22.00;90.00;;;;;;4993819;28;20031;-73
2022/09/20 08:13:45;;;;;;;1999.90;999.90;;;21.20;91.50;;;;;;4992658;28;20042;-74
2022/09/20 08:16:12;;;;;;;1999.90;999.90;;;21.50;90.90;;;;;;4993562;28;20037;-73
2022/09/20 08:18:45;;;;;;;1999.90;999.90;;;21.90;90.20;;;;;;4988614;28;20026;-76
2022/09/20 08:21:11;;;;;;;1999.90;999.90;;;21.40;90.60;;;;;;4987585;28;20054;-75
2022/09/20 08:23:41;;;;;;;1999.90;999.90;;;19.80;92.30;;;;;;4981866;28;20058;-72
2022/09/20 08:26:12;;;;;;;1999.90;999.90;;;20.20;92.40;;;;;;4992017;28;20375;-73
2022/09/20 08:28:40;;;;;;;1999.90;999.90;;;21.90;90.70;;;;;;4993055;28;20441;-72
2022/09/20 08:31:10;;;;;;;1999.90;999.90;;;23.40;89.30;;;;;;4992420;28;20497;-76
2022/09/20 08:33:36;;;;;;;1999.90;999.90;;;23.70;87.80;;;;;;4989943;28;20504;-72
2022/09/20 08:36:08;;;;;;;1999.90;999.90;;;24.00;86.90;;;;;;4988608;28;20026;-73
2022/09/20 08:38:34;;;;;;;1999.90;999.90;;;24.70;85.50;;;;;;4989134;28;20049;-73
2022/09/20 08:41:25;;;;;;;1999.90;999.90;;;24.70;85.50;;;;;;4990842;28;20042;-73
2022/09/20 08:44:06;;;;;;;1999.90;999.90;;;24.80;84.90;;;;;;4992868;28;20062;-76
2022/09/20 08:46:38;;;;;;;1999.90;999.90;;;25.60;84.30;;;;;;4993457;28;20034;-77
2022/09/20 08:49:06;;;;;;;1999.90;999.90;;;26.30;83.20;;;;;;4991986;28;20413;-73
2022/09/20 08:51:38;;;;;;;1999.90;999.90;;;25.80;83.30;;;;;;4993800;28;20094;-75
2022/09/20 08:54:15;;;;;;;1999.90;999.90;;;26.30;82.00;;;;;;4991234;28;20034;-80
2022/09/20 08:56:41;;;;;;;1999.90;999.90;;;26.40;82.90;;;;;;4992247;28;20038;-79
2022/09/20 08:59:13;;;;;;;1999.90;999.90;;;26.40;82.50;;;;;;4991858;28;20390;-76
2022/09/20 09:01:40;;;;;;;;;;;26.00;83.80;;;;;;4993354;28;20488;-73
2022/09/20 09:04:16;;;;;;;1999.90;999.90;;;25.50;82.60;;;;;;4991344;28;20354;-73
2022/09/20 09:06:43;;;;;;;1999.90;999.90;;;25.60;83.10;;;;;;4993343;28;20089;-73
2022/09/20 09:09:22;;;;;;;1999.90;999.90;;;26.60;82.30;;;;;;4993281;28;20084;-76
2022/09/20 09:11:48;;;;;;;1999.90;999.90;;;26.60;82.30;;;;;;4988587;28;20018;-77
2022/09/20 09:17:12;;;;;;;1999.90;999.90;;;27.00;81.50;;;;;;4992625;28;20089;-74
2022/09/20 09:19:47;;;;;;;1999.90;999.90;;;27.30;80.90;;;;;;4992134;28;20030;-74
2022/09/20 09:22:40;;;;;;;1999.90;999.90;;;26.40;81.70;;;;;;4987203;28;20385;-79
2022/09/20 09:25:09;;;;;;;1999.90;999.90;;;26.00;82.00;;;;;;4985890;28;20046;-78
2022/09/20 09:27:56;;;;;;;1999.90;999.90;;;25.30;83.90;;;;;;4992923;28;20031;-75
2022/09/20 09:30:25;;;;;;;1999.90;999.90;;;23.70;86.00;;;;;;4989135;28;20082;-76
2022/09/20 09:32:53;;;;;;;1999.90;999.90;;;23.00;87.00;;;;;;4991763;28;20045;-75
2022/09/20 09:35:25;;;;;;;1999.90;999.90;;;22.30;88.00;;;;;;4992214;28;20120;-76
2022/09/20 09:37:59;;;;;;;1999.90;999.90;;;21.40;90.10;;;;;;4988836;28;20383;-78
2022/09/20 09:40:26;;;;;;;1999.90;999.90;;;21.10;90.40;;;;;;4989328;28;20035;-75
2022/09/20 09:42:59;;;;;;;1999.90;999.90;;;21.10;90.70;;;;;;4978785;28;20470;-76
2022/09/20 09:45:37;;;;;;;1999.90;999.90;;;21.40;90.50;;;;;;4992227;28;20037;-78
2022/09/20 09:48:26;;;;;;;1999.90;999.90;;;21.50;90.50;;;;;;4992076;28;20027;-76
2022/09/20 09:51:14;;;;;;;1999.90;999.90;;;21.30;90.70;;;;;;5006932;28;20046;-75
2022/09/20 09:53:41;;;;;;;1999.90;999.90;;;21.30;90.90;;;;;;4987633;28;20370;-75
2022/09/20 09:56:29;;;;;;;1999.90;999.90;;;20.70;90.70;;;;;;4990340;28;20042;-78
2022/09/20 09:59:13;;;;;;;1999.90;999.90;;;20.80;90.80;;;;;;4989981;28;20049;-76
2022/09/20 10:01:54;;;;;;;1999.90;999.90;;;20.80;91.10;;;;;;4985350;28;20050;-76
2022/09/20 10:04:42;;;;;;;1999.90;999.90;;;20.90;90.70;;;;;;4991622;28;20022;-76
2022/09/20 10:07:37;;;;;;;1999.90;999.90;;;21.30;90.40;;;;;;4978786;28;20061;-78
2022/09/20 10:10:35;;;;;;;1999.90;999.90;;;21.20;90.60;;;;;;4991934;28;20026;-76
2022/09/20 10:13:12;;;;;;;1999.90;999.90;;;21.10;89.90;;;;;;4978146;28;20398;-78
2022/09/20 10:15:51;;;;;;;1999.90;999.90;;;21.10;90.10;;;;;;4988505;28;20026;-78
2022/09/20 10:18:39;;;;;;;1999.90;999.90;;;20.90;90.40;;;;;;4991197;28;20026;-78
2022/09/20 10:21:13;;;;;;;1999.90;999.90;;;21.10;90.60;;;;;;4983992;28;20030;-78
2022/09/20 10:23:58;;;;;;;1999.90;999.90;;;21.30;90.60;;;;;;4984348;28;20394;-78
2022/09/20 10:27:10;;;;;;;1999.90;999.90;;;21.40;90.30;;;;;;4986772;28;20057;-78
2022/09/20 10:30:03;;;;;;;1999.90;999.90;;;21.30;90.00;;;;;;4984278;28;20386;-78
2022/09/20 10:32:54;;;;;;;1999.90;999.90;;;21.30;89.80;;;;;;4987293;28;20257;-75
2022/09/20 10:35:28;;;;;;;1999.90;999.90;;;21.50;89.90;;;;;;4979478;28;20023;-76
2022/09/20 10:38:07;;;;;;;1999.90;999.90;;;21.10;89.40;;;;;;4985437;28;20536;-78
2022/09/20 10:44:09;;;;;;;1999.90;999.90;;;21.10;90.00;;;;;;4971535;28;20086;-79
2022/09/20 10:47:02;;;;;;;1999.90;999.90;;;21.20;90.20;;;;;;4967782;28;20031;-76
2022/09/20 10:49:38;;;;;;;1999.90;999.90;;;21.40;90.00;;;;;;4973058;28;20070;-78
2022/09/20 10:52:22;;;;;;;1999.90;999.90;;;21.50;89.70;;;;;;4980164;28;20089;-78
2022/09/20 10:55:05;;;;;;;1999.90;999.90;;;21.50;89.20;;;;;;4981424;28;20054;-78
2022/09/20 10:58:06;;;;;;;1999.90;999.90;;;21.00;88.60;;;;;;4983470;28;20046;-77
2022/09/20 11:00:34;;;;;;;1999.90;999.90;;;21.20;89.50;;;;;;4985523;28;20498;-76
2022/09/20 11:03:21;;;;;;;1999.90;999.90;;;21.60;88.90;;;;;;4982639;28;20022;-78
2022/09/20 11:06:16;;;;;;;1999.90;999.90;;;21.50;88.00;;;;;;4986923;28;20462;-79
2022/09/20 11:08:44;;;;;;;1999.90;999.90;;;21.30;88.30;;;;;;4985786;28;20034;-76
2022/09/20 11:11:35;;;;;;;1999.90;999.90;;;21.30;90.00;;;;;;4986758;28;20029;-79
2022/09/20 11:14:05;;;;;;;1999.90;999.90;;;21.20;89.00;;;;;;4987919;28;20385;-76
2022/09/20 11:16:44;;;;;;;1999.90;999.90;;;21.30;88.00;;;;;;4982986;28;20085;-76
2022/09/20 11:19:22;;;;;;;1999.90;999.90;;;21.40;88.30;;;;;;4981726;28;20039;-76
2022/09/20 11:21:59;;;;;;;1999.90;999.90;;;21.60;88.60;;;;;;4986177;28;20018;-79
2022/09/20 11:24:38;;;;;;;1999.90;999.90;;;21.60;87.20;;;;;;4984708;28;20029;-76
2022/09/20 11:27:17;;;;;;;1999.90;999.90;;;21.60;87.60;;;;;;4983572;28;20097;-76
2022/09/20 11:30:07;;;;;;;1999.90;999.90;;;21.70;88.10;;;;;;4984632;28;20073;-79
2022/09/20 11:32:35;;;;;;;1999.90;999.90;;;21.80;87.10;;;;;;4988444;28;20030;-79
2022/09/20 11:35:10;;;;;;;1999.90;999.90;;;21.80;87.40;;;;;;4988696;28;20046;-76
2022/09/20 11:37:42;;;;;;;1999.90;999.90;;;21.80;87.90;;;;;;4988233;28;20026;-76
2022/09/20 11:40:28;;;;;;;1999.90;999.90;;;21.90;87.40;;;;;;4989687;28;20030;-76
2022/09/20 11:42:58;;;;;;;1999.90;999.90;;;22.00;87.50;;;;;;4988473;28;20399;-79
2022/09/20 11:45:25;;;;;;;1999.90;999.90;;;22.20;87.20;;;;;;4989498;28;20037;-79
2022/09/20 11:48:01;;;;;;;1999.90;999.90;;;22.40;86.50;;;;;;4987786;28;20045;-79
2022/09/20 11:50:45;;;;;;;1999.90;999.90;;;22.50;86.00;;;;;;4989268;28;20474;-76
2022/09/20 11:53:35;;;;;;;1999.90;999.90;;;22.50;86.60;;;;;;4989952;28;20041;-76
2022/09/20 11:56:17;;;;;;;1999.90;999.90;;;22.60;85.90;;;;;;4986647;28;20044;-77
2022/09/20 11:58:55;;;;;;;1999.90;999.90;;;22.60;86.40;;;;;;4983310;28;20027;-76
2022/09/20 12:01:36;;;;;;;1999.90;999.90;;;22.60;85.80;;;;;;4979233;28;20015;-80
2022/09/20 12:04:17;;;;;;;1999.90;999.90;;;22.50;86.10;;;;;;4990440;28;20443;-81
2022/09/20 12:06:44;;;;;;;1999.90;999.90;;;22.50;86.50;;;;;;4982055;28;20505;-77
2022/09/20 12:09:27;;;;;;;1999.90;999.90;;;22.50;86.40;;;;;;4986577;28;20036;-76
2022/09/20 12:11:53;;;;;;;1999.90;999.90;;;22.30;85.50;;;;;;4984482;28;20034;-77
2022/09/20 12:14:24;;;;;;;1999.90;999.90;;;22.50;85.30;;;;;;4989729;28;20030;-76
2022/09/20 12:16:51;;;;;;;1999.90;999.90;;;22.70;85.70;;;;;;4984527;28;20081;-77
2022/09/20 12:19:32;;;;;;;1999.90;999.90;;;23.20;84.70;;;;;;4987606;28;20121;-78
2022/09/20 12:21:57;;;;;;;1999.90;999.90;;;23.50;84.60;;;;;;4988748;28;20130;-81
2022/09/20 12:24:32;;;;;;;1999.90;999.90;;;23.40;84.00;;;;;;4987747;28;20022;-81
2022/09/20 12:27:01;;;;;;;1999.90;999.90;;;22.90;84.50;;;;;;4988024;28;20037;-78
2022/09/20 12:29:30;;;;;;;1999.90;999.90;;;23.00;85.10;;;;;;4984507;28;20069;-77
2022/09/20 12:31:59;;;;;;;1999.90;999.90;;;23.20;83.90;;;;;;4984262;28;20053;-77
2022/09/20 12:34:25;;;;;;;1999.90;999.90;;;23.30;84.20;;;;;;4983800;28;20540;-81
2022/09/20 12:36:53;;;;;;;1999.90;999.90;;;23.20;84.70;;;;;;4991081;28;20062;-81
2022/09/20 12:39:30;;;;;;;1999.90;999.90;;;23.00;84.90;;;;;;4992324;28;20033;-81
2022/09/20 12:41:59;;;;;;;1999.90;999.90;;;22.80;84.20;;;;;;4991661;28;20555;-81
2022/09/20 12:44:35;;;;;;;1999.90;999.90;;;22.90;84.60;;;;;;4993035;28;20018;-78
2022/09/20 12:47:08;;;;;;;1999.90;999.90;;;22.90;84.50;;;;;;4990368;28;20022;-81
2022/09/20 12:55:39;;;;;;;1999.90;999.90;;;23.10;84.30;;;;;;4986169;28;20030;-81
2022/09/20 12:58:14;;;;;;;1999.90;999.90;;;22.80;84.50;;;;;;4991355;28;20117;-77
2022/09/20 13:01:08;;;;;;;1999.90;999.90;;;23.00;84.60;;;;;;4986474;28;20116;-82
2022/09/20 13:03:48;;;;;;;1999.90;999.90;;;23.00;84.70;;;;;;4991257;28;20027;-82
2022/09/20 13:06:15;;;;;;;1999.90;999.90;;;23.00;84.40;;;;;;4992627;28;20045;-82
2022/09/20 13:09:00;;;;;;;1999.90;999.90;;;23.00;84.70;;;;;;4989869;28;20026;-77
2022/09/20 13:11:44;;;;;;;1999.90;999.90;;;23.20;84.20;;;;;;4992163;28;20043;-81
2022/09/20 13:14:25;;;;;;;1999.90;999.90;;;23.40;83.80;;;;;;4991884;28;20101;-81
2022/09/20 13:16:58;;;;;;;1999.90;999.90;;;23.10;83.30;;;;;;4990966;28;20060;-81
2022/09/20 13:19:29;;;;;;;1999.90;999.90;;;23.00;84.40;;;;;;4988377;28;20062;-81